sensor_id;sensor_type;location;lat;lon;timestamp;P1;durP1;ratioP1;P2;durP2;ratioP2
2710;SDS011;20721;47.402;8.550;2023-04-24T00:00:50;0.67;;;0.67;;
2710;SDS011;20721;47.402;8.550;2023-04-24T00:01:50;0.71;;;0.71;;
2710;SDS011;20721;47.402;8.550;2023-04-24T00:02:52;0.70;;;0.70;;
2710;SDS011;20721;47.402;8.550;2023-04-24T00:03:51;0.72;;;0.72;;
2710;SDS011;20721;47.402;8.550;2023-04-24T00:04:51;0.79;;;0.79;;
2710;SDS011;20721;47.402;8.550;2023-04-24T00:05:51;0.50;;;0.50;;
2710;SDS011;20721;47.402;8.550;2023-04-24T00:06:53;0.80;;;0.80;;
2710;SDS011;20721;47.402;8.550;2023-04-24T00:07:50;0.79;;;0.79;;
2710;SDS011;20721;47.402;8.550;2023-04-24T00:08:50;0.80;;;0.80;;
2710;SDS011;20721;47.402;8.550;2023-04-24T00:10:51;0.78;;;0.78;;
2710;SDS011;20721;47.402;8.550;2023-04-24T00:11:50;0.56;;;0.56;;
2710;SDS011;20721;47.402;8.550;2023-04-24T00:12:50;0.66;;;0.66;;
2710;SDS011;20721;47.402;8.550;2023-04-24T00:13:50;0.84;;;0.84;;
2710;SDS011;20721;47.402;8.550;2023-04-24T00:14:50;0.48;;;0.48;;
2710;SDS011;20721;47.402;8.550;2023-04-24T00:15:50;0.74;;;0.74;;
2710;SDS011;20721;47.402;8.550;2023-04-24T00:16:50;0.71;;;0.71;;
2710;SDS011;20721;47.402;8.550;2023-04-24T00:17:50;0.74;;;0.74;;
2710;SDS011;20721;47.402;8.550;2023-04-24T00:18:51;0.78;;;0.78;;
2710;SDS011;20721;47.402;8.550;2023-04-24T00:19:50;0.77;;;0.77;;
2710;SDS011;20721;47.402;8.550;2023-04-24T00:20:50;0.79;;;0.79;;
2710;SDS011;20721;47.402;8.550;2023-04-24T00:21:51;0.82;;;0.82;;
2710;SDS011;20721;47.402;8.550;2023-04-24T00:22:50;0.74;;;0.74;;
2710;SDS011;20721;47.402;8.550;2023-04-24T00:23:50;0.75;;;0.75;;
2710;SDS011;20721;47.402;8.550;2023-04-24T00:24:50;0.70;;;0.70;;
2710;SDS011;20721;47.402;8.550;2023-04-24T00:25:50;0.70;;;0.70;;
2710;SDS011;20721;47.402;8.550;2023-04-24T00:26:50;0.73;;;0.73;;
2710;SDS011;20721;47.402;8.550;2023-04-24T00:27:50;1.13;;;1.13;;
2710;SDS011;20721;47.402;8.550;2023-04-24T00:28:50;0.63;;;0.63;;
2710;SDS011;20721;47.402;8.550;2023-04-24T00:29:50;0.72;;;0.72;;
2710;SDS011;20721;47.402;8.550;2023-04-24T00:31:50;0.75;;;0.75;;
2710;SDS011;20721;47.402;8.550;2023-04-24T00:32:50;0.60;;;0.60;;
2710;SDS011;20721;47.402;8.550;2023-04-24T00:33:52;0.51;;;0.51;;
2710;SDS011;20721;47.402;8.550;2023-04-24T00:34:50;0.79;;;0.79;;
2710;SDS011;20721;47.402;8.550;2023-04-24T00:35:50;0.77;;;0.77;;
2710;SDS011;20721;47.402;8.550;2023-04-24T00:37:50;0.58;;;0.58;;
2710;SDS011;20721;47.402;8.550;2023-04-24T00:38:50;0.61;;;0.61;;
2710;SDS011;20721;47.402;8.550;2023-04-24T00:39:52;0.45;;;0.45;;
2710;SDS011;20721;47.402;8.550;2023-04-24T00:41:50;0.61;;;0.61;;
2710;SDS011;20721;47.402;8.550;2023-04-24T00:42:50;0.50;;;0.50;;
2710;SDS011;20721;47.402;8.550;2023-04-24T00:43:51;0.62;;;0.62;;
2710;SDS011;20721;47.402;8.550;2023-04-24T00:44:50;0.60;;;0.60;;
2710;SDS011;20721;47.402;8.550;2023-04-24T00:45:50;0.66;;;0.66;;
2710;SDS011;20721;47.402;8.550;2023-04-24T00:48:50;0.64;;;0.64;;
2710;SDS011;20721;47.402;8.550;2023-04-24T00:49:50;0.51;;;0.51;;
2710;SDS011;20721;47.402;8.550;2023-04-24T00:50:50;0.55;;;0.55;;
2710;SDS011;20721;47.402;8.550;2023-04-24T00:51:50;0.63;;;0.63;;
2710;SDS011;20721;47.402;8.550;2023-04-24T00:52:50;0.67;;;0.67;;
2710;SDS011;20721;47.402;8.550;2023-04-24T00:53:50;0.54;;;0.54;;
2710;SDS011;20721;47.402;8.550;2023-04-24T00:54:50;0.70;;;0.70;;
2710;SDS011;20721;47.402;8.550;2023-04-24T00:55:50;0.40;;;0.40;;
2710;SDS011;20721;47.402;8.550;2023-04-24T00:56:51;0.39;;;0.39;;
2710;SDS011;20721;47.402;8.550;2023-04-24T00:59:52;0.59;;;0.59;;
2710;SDS011;20721;47.402;8.550;2023-04-24T01:00:50;0.62;;;0.62;;
2710;SDS011;20721;47.402;8.550;2023-04-24T01:01:52;0.52;;;0.52;;
2710;SDS011;20721;47.402;8.550;2023-04-24T01:02:54;0.35;;;0.35;;
2710;SDS011;20721;47.402;8.550;2023-04-24T01:03:51;0.42;;;0.42;;
2710;SDS011;20721;47.402;8.550;2023-04-24T01:04:50;0.53;;;0.53;;
2710;SDS011;20721;47.402;8.550;2023-04-24T01:05:51;0.43;;;0.43;;
2710;SDS011;20721;47.402;8.550;2023-04-24T01:06:53;0.46;;;0.46;;
2710;SDS011;20721;47.402;8.550;2023-04-24T01:07:52;0.42;;;0.42;;
2710;SDS011;20721;47.402;8.550;2023-04-24T01:08:51;0.37;;;0.37;;
2710;SDS011;20721;47.402;8.550;2023-04-24T01:09:52;0.28;;;0.28;;
2710;SDS011;20721;47.402;8.550;2023-04-24T01:10:53;0.40;;;0.40;;
2710;SDS011;20721;47.402;8.550;2023-04-24T01:11:51;0.29;;;0.29;;
2710;SDS011;20721;47.402;8.550;2023-04-24T01:12:50;0.24;;;0.24;;
2710;SDS011;20721;47.402;8.550;2023-04-24T01:13:51;0.27;;;0.27;;
2710;SDS011;20721;47.402;8.550;2023-04-24T01:14:50;0.30;;;0.30;;
2710;SDS011;20721;47.402;8.550;2023-04-24T01:15:50;0.25;;;0.25;;
2710;SDS011;20721;47.402;8.550;2023-04-24T01:16:52;0.24;;;0.24;;
2710;SDS011;20721;47.402;8.550;2023-04-24T01:17:51;0.27;;;0.27;;
2710;SDS011;20721;47.402;8.550;2023-04-24T01:18:51;0.26;;;0.26;;
2710;SDS011;20721;47.402;8.550;2023-04-24T01:19:50;0.19;;;0.19;;
2710;SDS011;20721;47.402;8.550;2023-04-24T01:20:52;0.55;;;0.55;;
2710;SDS011;20721;47.402;8.550;2023-04-24T01:21:53;0.24;;;0.24;;
2710;SDS011;20721;47.402;8.550;2023-04-24T01:22:52;0.31;;;0.31;;
2710;SDS011;20721;47.402;8.550;2023-04-24T01:25:50;0.38;;;0.38;;
2710;SDS011;20721;47.402;8.550;2023-04-24T01:26:50;0.30;;;0.30;;
2710;SDS011;20721;47.402;8.550;2023-04-24T01:28:51;0.32;;;0.32;;
2710;SDS011;20721;47.402;8.550;2023-04-24T01:29:50;0.21;;;0.21;;
2710;SDS011;20721;47.402;8.550;2023-04-24T01:30:52;0.28;;;0.28;;
2710;SDS011;20721;47.402;8.550;2023-04-24T01:31:51;0.35;;;0.35;;
2710;SDS011;20721;47.402;8.550;2023-04-24T01:34:50;0.38;;;0.38;;
2710;SDS011;20721;47.402;8.550;2023-04-24T01:35:50;0.41;;;0.41;;
2710;SDS011;20721;47.402;8.550;2023-04-24T01:36:51;0.29;;;0.29;;
2710;SDS011;20721;47.402;8.550;2023-04-24T01:37:50;0.29;;;0.29;;
2710;SDS011;20721;47.402;8.550;2023-04-24T01:38:50;0.48;;;0.48;;
2710;SDS011;20721;47.402;8.550;2023-04-24T01:39:51;0.21;;;0.21;;
2710;SDS011;20721;47.402;8.550;2023-04-24T01:40:50;0.28;;;0.28;;
2710;SDS011;20721;47.402;8.550;2023-04-24T01:41:51;0.42;;;0.42;;
2710;SDS011;20721;47.402;8.550;2023-04-24T01:42:50;0.31;;;0.31;;
2710;SDS011;20721;47.402;8.550;2023-04-24T01:43:50;0.42;;;0.42;;
2710;SDS011;20721;47.402;8.550;2023-04-24T01:44:51;0.41;;;0.41;;
2710;SDS011;20721;47.402;8.550;2023-04-24T01:45:50;0.27;;;0.27;;
2710;SDS011;20721;47.402;8.550;2023-04-24T01:46:50;0.17;;;0.17;;
2710;SDS011;20721;47.402;8.550;2023-04-24T01:47:53;0.25;;;0.25;;
2710;SDS011;20721;47.402;8.550;2023-04-24T01:48:51;0.27;;;0.27;;
2710;SDS011;20721;47.402;8.550;2023-04-24T01:49:51;0.29;;;0.29;;
2710;SDS011;20721;47.402;8.550;2023-04-24T01:50:50;0.28;;;0.28;;
2710;SDS011;20721;47.402;8.550;2023-04-24T01:51:50;0.21;;;0.21;;
2710;SDS011;20721;47.402;8.550;2023-04-24T01:52:50;0.42;;;0.42;;
2710;SDS011;20721;47.402;8.550;2023-04-24T01:53:52;0.41;;;0.41;;
2710;SDS011;20721;47.402;8.550;2023-04-24T01:54:50;0.40;;;0.40;;
2710;SDS011;20721;47.402;8.550;2023-04-24T01:55:51;0.15;;;0.15;;
2710;SDS011;20721;47.402;8.550;2023-04-24T01:56:51;0.27;;;0.27;;
2710;SDS011;20721;47.402;8.550;2023-04-24T01:57:52;0.31;;;0.31;;
2710;SDS011;20721;47.402;8.550;2023-04-24T01:58:50;0.23;;;0.23;;
2710;SDS011;20721;47.402;8.550;2023-04-24T01:59:51;0.19;;;0.19;;
2710;SDS011;20721;47.402;8.550;2023-04-24T02:00:51;0.29;;;0.29;;
2710;SDS011;20721;47.402;8.550;2023-04-24T02:01:50;0.38;;;0.38;;
2710;SDS011;20721;47.402;8.550;2023-04-24T02:03:51;0.23;;;0.23;;
2710;SDS011;20721;47.402;8.550;2023-04-24T02:04:50;0.25;;;0.25;;
2710;SDS011;20721;47.402;8.550;2023-04-24T02:05:53;0.30;;;0.30;;
2710;SDS011;20721;47.402;8.550;2023-04-24T02:06:50;0.28;;;0.28;;
2710;SDS011;20721;47.402;8.550;2023-04-24T02:07:50;0.19;;;0.19;;
2710;SDS011;20721;47.402;8.550;2023-04-24T02:08:50;0.31;;;0.31;;
2710;SDS011;20721;47.402;8.550;2023-04-24T02:09:51;0.30;;;0.30;;
2710;SDS011;20721;47.402;8.550;2023-04-24T02:10:50;0.29;;;0.29;;
2710;SDS011;20721;47.402;8.550;2023-04-24T02:11:50;0.20;;;0.20;;
2710;SDS011;20721;47.402;8.550;2023-04-24T02:12:50;0.28;;;0.28;;
2710;SDS011;20721;47.402;8.550;2023-04-24T02:13:50;0.22;;;0.22;;
2710;SDS011;20721;47.402;8.550;2023-04-24T02:14:52;0.15;;;0.15;;
2710;SDS011;20721;47.402;8.550;2023-04-24T02:15:50;0.33;;;0.33;;
2710;SDS011;20721;47.402;8.550;2023-04-24T02:16:50;0.19;;;0.19;;
2710;SDS011;20721;47.402;8.550;2023-04-24T02:18:50;0.39;;;0.39;;
2710;SDS011;20721;47.402;8.550;2023-04-24T02:19:51;0.44;;;0.44;;
2710;SDS011;20721;47.402;8.550;2023-04-24T02:20:50;0.34;;;0.34;;
2710;SDS011;20721;47.402;8.550;2023-04-24T02:21:50;0.27;;;0.27;;
2710;SDS011;20721;47.402;8.550;2023-04-24T02:22:50;0.41;;;0.41;;
2710;SDS011;20721;47.402;8.550;2023-04-24T02:24:53;0.33;;;0.33;;
2710;SDS011;20721;47.402;8.550;2023-04-24T02:25:50;0.22;;;0.22;;
2710;SDS011;20721;47.402;8.550;2023-04-24T02:26:50;0.20;;;0.20;;
2710;SDS011;20721;47.402;8.550;2023-04-24T02:27:50;0.22;;;0.22;;
2710;SDS011;20721;47.402;8.550;2023-04-24T02:28:50;0.31;;;0.31;;
2710;SDS011;20721;47.402;8.550;2023-04-24T02:29:51;0.18;;;0.18;;
2710;SDS011;20721;47.402;8.550;2023-04-24T02:31:50;0.31;;;0.31;;
2710;SDS011;20721;47.402;8.550;2023-04-24T02:32:50;0.28;;;0.28;;
2710;SDS011;20721;47.402;8.550;2023-04-24T02:33:50;0.26;;;0.26;;
2710;SDS011;20721;47.402;8.550;2023-04-24T02:34:50;0.31;;;0.31;;
2710;SDS011;20721;47.402;8.550;2023-04-24T02:35:50;0.18;;;0.18;;
2710;SDS011;20721;47.402;8.550;2023-04-24T02:36:50;0.28;;;0.28;;
2710;SDS011;20721;47.402;8.550;2023-04-24T02:37:50;0.11;;;0.11;;
2710;SDS011;20721;47.402;8.550;2023-04-24T02:38:50;0.19;;;0.19;;
2710;SDS011;20721;47.402;8.550;2023-04-24T02:39:51;0.22;;;0.22;;
2710;SDS011;20721;47.402;8.550;2023-04-24T02:40:50;0.20;;;0.20;;
2710;SDS011;20721;47.402;8.550;2023-04-24T02:41:50;0.41;;;0.41;;
2710;SDS011;20721;47.402;8.550;2023-04-24T02:42:50;0.06;;;0.06;;
2710;SDS011;20721;47.402;8.550;2023-04-24T02:43:50;0.23;;;0.23;;
2710;SDS011;20721;47.402;8.550;2023-04-24T02:45:51;0.28;;;0.28;;
2710;SDS011;20721;47.402;8.550;2023-04-24T02:46:51;0.24;;;0.24;;
2710;SDS011;20721;47.402;8.550;2023-04-24T02:47:50;0.26;;;0.26;;
2710;SDS011;20721;47.402;8.550;2023-04-24T02:48:50;0.30;;;0.30;;
2710;SDS011;20721;47.402;8.550;2023-04-24T02:49:51;0.34;;;0.34;;
2710;SDS011;20721;47.402;8.550;2023-04-24T02:50:50;0.26;;;0.26;;
2710;SDS011;20721;47.402;8.550;2023-04-24T02:51:51;0.30;;;0.30;;
2710;SDS011;20721;47.402;8.550;2023-04-24T02:52:50;0.15;;;0.15;;
2710;SDS011;20721;47.402;8.550;2023-04-24T02:53:50;0.15;;;0.15;;
2710;SDS011;20721;47.402;8.550;2023-04-24T02:54:50;0.42;;;0.42;;
2710;SDS011;20721;47.402;8.550;2023-04-24T02:55:50;0.20;;;0.20;;
2710;SDS011;20721;47.402;8.550;2023-04-24T02:56:50;0.38;;;0.38;;
2710;SDS011;20721;47.402;8.550;2023-04-24T02:57:51;0.12;;;0.12;;
2710;SDS011;20721;47.402;8.550;2023-04-24T02:58:50;0.19;;;0.19;;
2710;SDS011;20721;47.402;8.550;2023-04-24T02:59:51;0.11;;;0.11;;
2710;SDS011;20721;47.402;8.550;2023-04-24T03:00:54;0.19;;;0.19;;
2710;SDS011;20721;47.402;8.550;2023-04-24T03:01:53;0.18;;;0.18;;
2710;SDS011;20721;47.402;8.550;2023-04-24T03:02:52;0.28;;;0.28;;
2710;SDS011;20721;47.402;8.550;2023-04-24T03:03:51;0.19;;;0.19;;
2710;SDS011;20721;47.402;8.550;2023-04-24T03:04:52;0.27;;;0.27;;
2710;SDS011;20721;47.402;8.550;2023-04-24T03:05:50;0.28;;;0.28;;
2710;SDS011;20721;47.402;8.550;2023-04-24T03:06:50;0.30;;;0.30;;
2710;SDS011;20721;47.402;8.550;2023-04-24T03:07:53;0.25;;;0.25;;
2710;SDS011;20721;47.402;8.550;2023-04-24T03:08:50;0.21;;;0.21;;
2710;SDS011;20721;47.402;8.550;2023-04-24T03:09:51;0.22;;;0.22;;
2710;SDS011;20721;47.402;8.550;2023-04-24T03:11:50;0.10;;;0.10;;
2710;SDS011;20721;47.402;8.550;2023-04-24T03:12:50;0.34;;;0.34;;
2710;SDS011;20721;47.402;8.550;2023-04-24T03:13:50;0.11;;;0.11;;
2710;SDS011;20721;47.402;8.550;2023-04-24T03:14:50;0.14;;;0.14;;
2710;SDS011;20721;47.402;8.550;2023-04-24T03:15:50;0.21;;;0.21;;
2710;SDS011;20721;47.402;8.550;2023-04-24T03:16:51;0.27;;;0.27;;
2710;SDS011;20721;47.402;8.550;2023-04-24T03:17:51;0.18;;;0.18;;
2710;SDS011;20721;47.402;8.550;2023-04-24T03:18:50;0.11;;;0.11;;
2710;SDS011;20721;47.402;8.550;2023-04-24T03:19:51;0.20;;;0.20;;
2710;SDS011;20721;47.402;8.550;2023-04-24T03:20:50;0.33;;;0.33;;
2710;SDS011;20721;47.402;8.550;2023-04-24T03:21:50;0.15;;;0.15;;
2710;SDS011;20721;47.402;8.550;2023-04-24T03:23:50;0.27;;;0.27;;
2710;SDS011;20721;47.402;8.550;2023-04-24T03:24:50;0.28;;;0.28;;
2710;SDS011;20721;47.402;8.550;2023-04-24T03:25:52;0.19;;;0.19;;
2710;SDS011;20721;47.402;8.550;2023-04-24T03:26:50;0.14;;;0.14;;
2710;SDS011;20721;47.402;8.550;2023-04-24T03:27:51;0.32;;;0.32;;
2710;SDS011;20721;47.402;8.550;2023-04-24T03:28:50;0.35;;;0.35;;
2710;SDS011;20721;47.402;8.550;2023-04-24T03:29:51;0.23;;;0.23;;
2710;SDS011;20721;47.402;8.550;2023-04-24T03:30:51;0.23;;;0.23;;
2710;SDS011;20721;47.402;8.550;2023-04-24T03:31:51;0.14;;;0.14;;
2710;SDS011;20721;47.402;8.550;2023-04-24T03:32:50;0.15;;;0.15;;
2710;SDS011;20721;47.402;8.550;2023-04-24T03:33:51;0.22;;;0.22;;
2710;SDS011;20721;47.402;8.550;2023-04-24T03:34:51;0.06;;;0.06;;
2710;SDS011;20721;47.402;8.550;2023-04-24T03:35:51;0.24;;;0.24;;
2710;SDS011;20721;47.402;8.550;2023-04-24T03:36:50;0.19;;;0.19;;
2710;SDS011;20721;47.402;8.550;2023-04-24T03:37:51;0.19;;;0.19;;
2710;SDS011;20721;47.402;8.550;2023-04-24T03:38:53;0.28;;;0.28;;
2710;SDS011;20721;47.402;8.550;2023-04-24T03:40:51;0.29;;;0.29;;
2710;SDS011;20721;47.402;8.550;2023-04-24T03:41:50;0.34;;;0.34;;
2710;SDS011;20721;47.402;8.550;2023-04-24T03:42:51;0.33;;;0.33;;
2710;SDS011;20721;47.402;8.550;2023-04-24T03:43:50;0.20;;;0.20;;
2710;SDS011;20721;47.402;8.550;2023-04-24T03:45:51;0.37;;;0.37;;
2710;SDS011;20721;47.402;8.550;2023-04-24T03:47:51;0.24;;;0.24;;
2710;SDS011;20721;47.402;8.550;2023-04-24T03:48:51;0.14;;;0.14;;
2710;SDS011;20721;47.402;8.550;2023-04-24T03:49:51;0.24;;;0.24;;
2710;SDS011;20721;47.402;8.550;2023-04-24T03:50:50;0.25;;;0.25;;
2710;SDS011;20721;47.402;8.550;2023-04-24T03:51:51;0.23;;;0.23;;
2710;SDS011;20721;47.402;8.550;2023-04-24T03:52:51;0.25;;;0.25;;
2710;SDS011;20721;47.402;8.550;2023-04-24T03:53:51;0.23;;;0.23;;
2710;SDS011;20721;47.402;8.550;2023-04-24T03:55:51;0.24;;;0.24;;
2710;SDS011;20721;47.402;8.550;2023-04-24T03:56:50;0.32;;;0.32;;
2710;SDS011;20721;47.402;8.550;2023-04-24T03:57:51;0.18;;;0.18;;
2710;SDS011;20721;47.402;8.550;2023-04-24T03:59:51;0.34;;;0.34;;
2710;SDS011;20721;47.402;8.550;2023-04-24T04:00:51;0.25;;;0.25;;
2710;SDS011;20721;47.402;8.550;2023-04-24T04:01:55;0.32;;;0.32;;
2710;SDS011;20721;47.402;8.550;2023-04-24T04:02:51;0.17;;;0.17;;
2710;SDS011;20721;47.402;8.550;2023-04-24T04:03:51;0.27;;;0.27;;
2710;SDS011;20721;47.402;8.550;2023-04-24T04:04:51;0.29;;;0.29;;
2710;SDS011;20721;47.402;8.550;2023-04-24T04:05:51;0.23;;;0.23;;
2710;SDS011;20721;47.402;8.550;2023-04-24T04:06:51;0.27;;;0.27;;
2710;SDS011;20721;47.402;8.550;2023-04-24T04:07:51;0.19;;;0.19;;
2710;SDS011;20721;47.402;8.550;2023-04-24T04:08:51;0.28;;;0.28;;
2710;SDS011;20721;47.402;8.550;2023-04-24T04:09:51;0.17;;;0.17;;
2710;SDS011;20721;47.402;8.550;2023-04-24T04:10:51;0.29;;;0.29;;
2710;SDS011;20721;47.402;8.550;2023-04-24T04:11:51;0.41;;;0.41;;
2710;SDS011;20721;47.402;8.550;2023-04-24T04:13:51;0.25;;;0.25;;
2710;SDS011;20721;47.402;8.550;2023-04-24T04:14:51;0.29;;;0.29;;
2710;SDS011;20721;47.402;8.550;2023-04-24T04:15:53;0.20;;;0.20;;
2710;SDS011;20721;47.402;8.550;2023-04-24T04:17:51;0.12;;;0.12;;
2710;SDS011;20721;47.402;8.550;2023-04-24T04:18:51;0.16;;;0.16;;
2710;SDS011;20721;47.402;8.550;2023-04-24T04:19:52;0.28;;;0.28;;
2710;SDS011;20721;47.402;8.550;2023-04-24T04:20:51;0.18;;;0.18;;
2710;SDS011;20721;47.402;8.550;2023-04-24T04:21:53;0.24;;;0.24;;
2710;SDS011;20721;47.402;8.550;2023-04-24T04:22:54;0.21;;;0.21;;
2710;SDS011;20721;47.402;8.550;2023-04-24T04:23:51;0.31;;;0.31;;
2710;SDS011;20721;47.402;8.550;2023-04-24T04:24:51;0.25;;;0.25;;
2710;SDS011;20721;47.402;8.550;2023-04-24T04:25:51;0.22;;;0.22;;
2710;SDS011;20721;47.402;8.550;2023-04-24T04:26:51;0.39;;;0.39;;
2710;SDS011;20721;47.402;8.550;2023-04-24T04:27:51;0.51;;;0.51;;
2710;SDS011;20721;47.402;8.550;2023-04-24T04:28:51;0.36;;;0.36;;
2710;SDS011;20721;47.402;8.550;2023-04-24T04:29:52;0.54;;;0.54;;
2710;SDS011;20721;47.402;8.550;2023-04-24T04:31:51;0.44;;;0.44;;
2710;SDS011;20721;47.402;8.550;2023-04-24T04:32:51;0.37;;;0.37;;
2710;SDS011;20721;47.402;8.550;2023-04-24T04:33:51;0.36;;;0.36;;
2710;SDS011;20721;47.402;8.550;2023-04-24T04:34:51;0.28;;;0.28;;
2710;SDS011;20721;47.402;8.550;2023-04-24T04:35:51;0.39;;;0.39;;
2710;SDS011;20721;47.402;8.550;2023-04-24T04:37:51;0.36;;;0.36;;
2710;SDS011;20721;47.402;8.550;2023-04-24T04:38:54;0.32;;;0.32;;
2710;SDS011;20721;47.402;8.550;2023-04-24T04:39:51;0.22;;;0.22;;
2710;SDS011;20721;47.402;8.550;2023-04-24T04:40:51;0.36;;;0.36;;
2710;SDS011;20721;47.402;8.550;2023-04-24T04:41:51;0.36;;;0.36;;
2710;SDS011;20721;47.402;8.550;2023-04-24T04:42:51;0.47;;;0.47;;
2710;SDS011;20721;47.402;8.550;2023-04-24T04:43:52;0.52;;;0.52;;
2710;SDS011;20721;47.402;8.550;2023-04-24T04:44:51;0.24;;;0.24;;
2710;SDS011;20721;47.402;8.550;2023-04-24T04:45:53;0.44;;;0.44;;
2710;SDS011;20721;47.402;8.550;2023-04-24T04:46:51;0.30;;;0.30;;
2710;SDS011;20721;47.402;8.550;2023-04-24T04:47:51;0.21;;;0.21;;
2710;SDS011;20721;47.402;8.550;2023-04-24T04:48:51;0.32;;;0.32;;
2710;SDS011;20721;47.402;8.550;2023-04-24T04:49:51;0.29;;;0.29;;
2710;SDS011;20721;47.402;8.550;2023-04-24T04:50:51;0.34;;;0.34;;
2710;SDS011;20721;47.402;8.550;2023-04-24T04:51:53;0.33;;;0.33;;
2710;SDS011;20721;47.402;8.550;2023-04-24T04:52:54;0.34;;;0.34;;
2710;SDS011;20721;47.402;8.550;2023-04-24T04:53:51;0.21;;;0.21;;
2710;SDS011;20721;47.402;8.550;2023-04-24T04:54:51;0.33;;;0.33;;
2710;SDS011;20721;47.402;8.550;2023-04-24T04:55:51;0.32;;;0.32;;
2710;SDS011;20721;47.402;8.550;2023-04-24T04:56:51;0.27;;;0.27;;
2710;SDS011;20721;47.402;8.550;2023-04-24T04:57:51;0.65;;;0.64;;
2710;SDS011;20721;47.402;8.550;2023-04-24T04:58:53;0.33;;;0.32;;
2710;SDS011;20721;47.402;8.550;2023-04-24T05:00:51;0.53;;;0.52;;
2710;SDS011;20721;47.402;8.550;2023-04-24T05:01:51;0.49;;;0.49;;
2710;SDS011;20721;47.402;8.550;2023-04-24T05:02:51;0.60;;;0.59;;
2710;SDS011;20721;47.402;8.550;2023-04-24T05:03:51;0.44;;;0.44;;
2710;SDS011;20721;47.402;8.550;2023-04-24T05:04:51;0.37;;;0.37;;
2710;SDS011;20721;47.402;8.550;2023-04-24T05:05:51;0.40;;;0.40;;
2710;SDS011;20721;47.402;8.550;2023-04-24T05:06:51;0.39;;;0.39;;
2710;SDS011;20721;47.402;8.550;2023-04-24T05:08:51;0.69;;;0.68;;
2710;SDS011;20721;47.402;8.550;2023-04-24T05:09:51;0.18;;;0.18;;
2710;SDS011;20721;47.402;8.550;2023-04-24T05:10:51;0.51;;;0.51;;
2710;SDS011;20721;47.402;8.550;2023-04-24T05:11:51;0.54;;;0.53;;
2710;SDS011;20721;47.402;8.550;2023-04-24T05:12:51;0.42;;;0.41;;
2710;SDS011;20721;47.402;8.550;2023-04-24T05:13:52;0.48;;;0.47;;
2710;SDS011;20721;47.402;8.550;2023-04-24T05:14:51;0.64;;;0.64;;
2710;SDS011;20721;47.402;8.550;2023-04-24T05:15:51;0.31;;;0.31;;
2710;SDS011;20721;47.402;8.550;2023-04-24T05:16:51;0.45;;;0.45;;
2710;SDS011;20721;47.402;8.550;2023-04-24T05:17:51;0.49;;;0.49;;
2710;SDS011;20721;47.402;8.550;2023-04-24T05:18:51;0.20;;;0.20;;
2710;SDS011;20721;47.402;8.550;2023-04-24T05:19:52;0.51;;;0.51;;
2710;SDS011;20721;47.402;8.550;2023-04-24T05:20:53;0.86;;;0.86;;
2710;SDS011;20721;47.402;8.550;2023-04-24T05:21:51;0.64;;;0.64;;
2710;SDS011;20721;47.402;8.550;2023-04-24T05:22:51;0.51;;;0.51;;
2710;SDS011;20721;47.402;8.550;2023-04-24T05:24:51;0.63;;;0.63;;
2710;SDS011;20721;47.402;8.550;2023-04-24T05:25:51;0.53;;;0.53;;
2710;SDS011;20721;47.402;8.550;2023-04-24T05:26:51;0.67;;;0.67;;
2710;SDS011;20721;47.402;8.550;2023-04-24T05:27:51;0.48;;;0.48;;
2710;SDS011;20721;47.402;8.550;2023-04-24T05:29:54;0.70;;;0.70;;
2710;SDS011;20721;47.402;8.550;2023-04-24T05:30:51;0.68;;;0.68;;
2710;SDS011;20721;47.402;8.550;2023-04-24T05:31:51;0.66;;;0.66;;
2710;SDS011;20721;47.402;8.550;2023-04-24T05:33:51;0.66;;;0.66;;
2710;SDS011;20721;47.402;8.550;2023-04-24T05:34:51;0.93;;;0.93;;
2710;SDS011;20721;47.402;8.550;2023-04-24T05:35:58;1.55;;;1.55;;
2710;SDS011;20721;47.402;8.550;2023-04-24T05:36:51;1.00;;;1.00;;
2710;SDS011;20721;47.402;8.550;2023-04-24T05:37:51;0.93;;;0.93;;
2710;SDS011;20721;47.402;8.550;2023-04-24T05:39:51;1.09;;;1.09;;
2710;SDS011;20721;47.402;8.550;2023-04-24T05:41:51;1.38;;;1.38;;
2710;SDS011;20721;47.402;8.550;2023-04-24T05:42:51;0.85;;;0.85;;
2710;SDS011;20721;47.402;8.550;2023-04-24T05:43:51;0.76;;;0.76;;
2710;SDS011;20721;47.402;8.550;2023-04-24T05:44:51;1.03;;;1.03;;
2710;SDS011;20721;47.402;8.550;2023-04-24T05:45:51;1.23;;;1.23;;
2710;SDS011;20721;47.402;8.550;2023-04-24T05:47:51;1.40;;;1.40;;
2710;SDS011;20721;47.402;8.550;2023-04-24T05:48:51;2.56;;;2.56;;
2710;SDS011;20721;47.402;8.550;2023-04-24T05:49:51;2.03;;;2.03;;
2710;SDS011;20721;47.402;8.550;2023-04-24T05:50:51;1.32;;;1.32;;
2710;SDS011;20721;47.402;8.550;2023-04-24T05:51:51;1.37;;;1.37;;
2710;SDS011;20721;47.402;8.550;2023-04-24T05:52:51;1.46;;;1.46;;
2710;SDS011;20721;47.402;8.550;2023-04-24T05:53:51;2.02;;;2.02;;
2710;SDS011;20721;47.402;8.550;2023-04-24T05:55:51;1.62;;;1.62;;
2710;SDS011;20721;47.402;8.550;2023-04-24T05:56:53;1.57;;;1.57;;
2710;SDS011;20721;47.402;8.550;2023-04-24T05:57:51;2.03;;;2.03;;
2710;SDS011;20721;47.402;8.550;2023-04-24T05:58:51;1.24;;;1.24;;
2710;SDS011;20721;47.402;8.550;2023-04-24T05:59:51;1.70;;;1.70;;
2710;SDS011;20721;47.402;8.550;2023-04-24T06:00:52;1.66;;;1.66;;
2710;SDS011;20721;47.402;8.550;2023-04-24T06:01:51;2.18;;;2.18;;
2710;SDS011;20721;47.402;8.550;2023-04-24T06:03:51;1.42;;;1.42;;
2710;SDS011;20721;47.402;8.550;2023-04-24T06:04:51;2.30;;;2.30;;
2710;SDS011;20721;47.402;8.550;2023-04-24T06:05:51;1.95;;;1.95;;
2710;SDS011;20721;47.402;8.550;2023-04-24T06:06:54;2.35;;;2.35;;
2710;SDS011;20721;47.402;8.550;2023-04-24T06:07:51;2.75;;;2.75;;
2710;SDS011;20721;47.402;8.550;2023-04-24T06:08:52;2.26;;;2.26;;
2710;SDS011;20721;47.402;8.550;2023-04-24T06:09:51;1.97;;;1.97;;
2710;SDS011;20721;47.402;8.550;2023-04-24T06:11:51;2.08;;;2.08;;
2710;SDS011;20721;47.402;8.550;2023-04-24T06:12:54;2.55;;;2.55;;
2710;SDS011;20721;47.402;8.550;2023-04-24T06:13:51;2.27;;;2.27;;
2710;SDS011;20721;47.402;8.550;2023-04-24T06:14:51;2.52;;;2.52;;
2710;SDS011;20721;47.402;8.550;2023-04-24T06:15:52;1.78;;;1.78;;
2710;SDS011;20721;47.402;8.550;2023-04-24T06:16:52;1.99;;;1.99;;
2710;SDS011;20721;47.402;8.550;2023-04-24T06:17:51;3.37;;;3.35;;
2710;SDS011;20721;47.402;8.550;2023-04-24T06:18:51;2.43;;;2.43;;
2710;SDS011;20721;47.402;8.550;2023-04-24T06:19:51;1.33;;;1.33;;
2710;SDS011;20721;47.402;8.550;2023-04-24T06:20:51;1.45;;;1.45;;
2710;SDS011;20721;47.402;8.550;2023-04-24T06:21:51;0.96;;;0.96;;
2710;SDS011;20721;47.402;8.550;2023-04-24T06:22:51;0.91;;;0.91;;
2710;SDS011;20721;47.402;8.550;2023-04-24T06:23:51;0.98;;;0.98;;
2710;SDS011;20721;47.402;8.550;2023-04-24T06:24:51;1.27;;;1.27;;
2710;SDS011;20721;47.402;8.550;2023-04-24T06:25:51;0.87;;;0.87;;
2710;SDS011;20721;47.402;8.550;2023-04-24T06:26:51;0.78;;;0.78;;
2710;SDS011;20721;47.402;8.550;2023-04-24T06:27:51;0.92;;;0.92;;
2710;SDS011;20721;47.402;8.550;2023-04-24T06:28:51;0.83;;;0.83;;
2710;SDS011;20721;47.402;8.550;2023-04-24T06:29:51;0.76;;;0.76;;
2710;SDS011;20721;47.402;8.550;2023-04-24T06:30:51;0.96;;;0.96;;
2710;SDS011;20721;47.402;8.550;2023-04-24T06:31:51;1.06;;;1.06;;
2710;SDS011;20721;47.402;8.550;2023-04-24T06:32:52;0.92;;;0.92;;
2710;SDS011;20721;47.402;8.550;2023-04-24T06:33:51;0.82;;;0.82;;
2710;SDS011;20721;47.402;8.550;2023-04-24T06:34:52;0.61;;;0.61;;
2710;SDS011;20721;47.402;8.550;2023-04-24T06:35:51;0.49;;;0.49;;
2710;SDS011;20721;47.402;8.550;2023-04-24T06:36:51;0.84;;;0.84;;
2710;SDS011;20721;47.402;8.550;2023-04-24T06:37:52;0.69;;;0.69;;
2710;SDS011;20721;47.402;8.550;2023-04-24T06:38:51;1.06;;;1.06;;
2710;SDS011;20721;47.402;8.550;2023-04-24T06:39:51;0.77;;;0.77;;
2710;SDS011;20721;47.402;8.550;2023-04-24T06:40:51;0.74;;;0.74;;
2710;SDS011;20721;47.402;8.550;2023-04-24T06:41:51;1.01;;;1.01;;
2710;SDS011;20721;47.402;8.550;2023-04-24T06:42:52;0.79;;;0.79;;
2710;SDS011;20721;47.402;8.550;2023-04-24T06:43:54;0.81;;;0.81;;
2710;SDS011;20721;47.402;8.550;2023-04-24T06:44:51;0.64;;;0.64;;
2710;SDS011;20721;47.402;8.550;2023-04-24T06:45:53;0.94;;;0.94;;
2710;SDS011;20721;47.402;8.550;2023-04-24T06:46:52;0.66;;;0.66;;